Time;durP1;ratioP1;P1;durP2;ratioP2;P2;SDS_P1;SDS_P2;PMS_P1;PMS_P2;Temp;Humidity;BMP_temperature;BMP_pressure;BME280_temperature;BME280_humidity;BME280_pressure;Samples;Min_cycle;Max_cycle;Signal;HPM_P1;HPM_P2
2024/01/05 00:01:35;;;;;;;14.87;14.27;;;7.20;99.90;;;;;;5120692;27;20232;-62
2024/01/05 00:04:01;;;;;;;13.97;13.47;;;7.10;99.90;;;;;;5122828;27;20209;-63
2024/01/05 00:06:29;;;;;;;14.77;14.17;;;7.20;99.90;;;;;;5119614;27;20237;-61
2024/01/05 00:08:56;;;;;;;15.07;14.47;;;7.20;99.90;;;;;;5125690;27;20205;-64
2024/01/05 00:11:23;;;;;;;13.17;12.67;;;7.20;99.90;;;;;;5121602;27;20591;-64
2024/01/05 00:13:50;;;;;;;14.70;14.13;;;7.20;99.90;;;;;;5120968;27;20197;-64
2024/01/05 00:16:18;;;;;;;14.33;13.83;;;7.20;99.90;;;;;;5116972;27;20209;-64
2024/01/05 00:18:45;;;;;;;14.43;13.77;;;7.10;99.90;;;;;;5116261;27;20222;-64
2024/01/05 00:21:19;;;;;;;13.60;13.10;;;7.10;99.90;;;;;;5127748;27;20212;-63
2024/01/05 00:23:48;;;;;;;13.27;12.77;;;7.10;99.90;;;;;;5121391;27;20205;-64
2024/01/05 00:26:14;;;;;;;12.83;12.33;;;7.20;99.90;;;;;;5125649;27;20205;-63
2024/01/05 00:28:41;;;;;;;13.30;12.80;;;7.20;99.90;;;;;;5126039;27;20209;-64
2024/01/05 00:31:10;;;;;;;13.53;13.03;;;7.20;99.90;;;;;;5136769;27;20246;-66
2024/01/05 00:33:37;;;;;;;12.53;12.07;;;7.20;99.90;;;;;;5127410;27;20202;-64
2024/01/05 00:36:04;;;;;;;13.10;12.60;;;7.30;99.90;;;;;;5140422;27;20197;-65
2024/01/05 00:38:31;;;;;;;13.53;13.03;;;7.30;99.90;;;;;;5142720;27;20229;-64
2024/01/05 00:40:59;;;;;;;13.30;12.80;;;7.30;99.90;;;;;;5126925;27;20205;-64
2024/01/05 00:43:26;;;;;;;13.40;12.90;;;7.30;99.90;;;;;;5130103;27;20220;-64
2024/01/05 00:45:52;;;;;;;13.03;12.53;;;7.30;99.90;;;;;;5127211;27;20202;-63
2024/01/05 00:48:19;;;;;;;12.70;12.20;;;7.30;99.90;;;;;;5119000;27;20197;-63
2024/01/05 00:50:46;;;;;;;13.60;13.10;;;7.40;99.90;;;;;;5134595;27;20847;-63
2024/01/05 00:53:13;;;;;;;13.33;12.83;;;7.40;99.90;;;;;;5128886;27;20218;-64
2024/01/05 00:55:40;;;;;;;13.33;12.83;;;7.40;99.90;;;;;;5118633;27;20197;-64
2024/01/05 00:58:08;;;;;;;13.00;12.50;;;7.50;99.90;;;;;;5114800;27;20296;-63
2024/01/05 01:00:34;;;;;;;13.10;12.60;;;7.50;99.90;;;;;;5119830;27;20229;-65
2024/01/05 01:03:02;;;;;;;13.20;12.70;;;7.50;99.90;;;;;;5126195;27;20221;-63
2024/01/05 01:05:29;;;;;;;13.30;12.80;;;7.50;99.90;;;;;;5124449;27;20206;-63
2024/01/05 01:07:56;;;;;;;12.77;12.27;;;7.50;99.90;;;;;;5124971;27;20194;-64
2024/01/05 01:10:23;;;;;;;14.00;13.40;;;7.50;99.90;;;;;;5123605;27;20249;-63
2024/01/05 01:12:49;;;;;;;13.23;12.73;;;7.50;99.90;;;;;;5126706;27;20225;-63
2024/01/05 01:15:18;;;;;;;13.20;12.70;;;7.40;99.90;;;;;;5117707;27;20212;-62
2024/01/05 01:17:44;;;;;;;12.67;12.23;;;7.40;99.90;;;;;;5120821;27;20254;-65
2024/01/05 01:20:11;;;;;;;12.83;12.33;;;7.50;99.90;;;;;;5124155;27;20201;-64
2024/01/05 01:22:38;;;;;;;13.30;12.80;;;7.50;99.90;;;;;;5127973;27;20222;-64
2024/01/05 01:25:05;;;;;;;15.03;14.43;;;7.50;99.90;;;;;;5127112;27;20672;-66
2024/01/05 01:27:34;;;;;;;13.10;12.60;;;7.50;99.90;;;;;;5121907;27;20209;-62
2024/01/05 01:30:00;;;;;;;13.67;13.07;;;7.50;99.90;;;;;;5124996;27;20576;-64
2024/01/05 01:32:29;;;;;;;13.57;12.97;;;7.50;99.90;;;;;;5120304;27;20813;-65
2024/01/05 01:34:55;;;;;;;14.57;14.07;;;7.50;99.90;;;;;;5128567;27;20229;-65
2024/01/05 01:37:22;;;;;;;13.47;12.97;;;7.50;99.90;;;;;;5125925;27;20228;-62
2024/01/05 01:39:49;;;;;;;13.53;13.03;;;7.40;99.90;;;;;;5130207;27;20197;-62
2024/01/05 01:42:15;;;;;;;13.10;12.60;;;7.40;99.90;;;;;;5139647;27;20221;-63
2024/01/05 01:44:42;;;;;;;14.27;13.77;;;7.40;99.90;;;;;;5136187;27;20676;-63
2024/01/05 01:47:09;;;;;;;13.43;12.93;;;7.40;99.90;;;;;;5129646;27;20212;-64
2024/01/05 01:49:37;;;;;;;14.20;13.70;;;7.30;99.90;;;;;;5140249;27;20193;-63
2024/01/05 01:52:04;;;;;;;13.40;12.90;;;7.30;99.90;;;;;;5130626;27;20586;-62
2024/01/05 01:54:32;;;;;;;13.87;13.37;;;7.30;99.90;;;;;;5127100;27;20214;-63
2024/01/05 01:57:00;;;;;;;14.40;13.80;;;7.30;99.90;;;;;;5128052;27;20221;-63
2024/01/05 01:59:26;;;;;;;14.37;13.87;;;7.30;99.90;;;;;;5127168;27;20229;-61
2024/01/05 02:01:53;;;;;;;13.70;13.20;;;7.30;99.90;;;;;;5129006;27;20236;-64
2024/01/05 02:04:23;;;;;;;13.33;12.83;;;7.30;99.90;;;;;;5122563;27;20214;-65
2024/01/05 02:06:51;;;;;;;13.23;12.73;;;7.40;99.90;;;;;;5127882;27;20240;-62
2024/01/05 02:09:18;;;;;;;13.13;12.63;;;7.40;99.90;;;;;;5120577;27;20198;-62
2024/01/05 02:11:45;;;;;;;12.70;12.20;;;7.40;99.90;;;;;;5111212;28;20221;-63
2024/01/05 02:14:12;;;;;;;12.67;12.27;;;7.50;99.90;;;;;;5111152;28;20574;-63
2024/01/05 02:16:41;;;;;;;12.45;12.05;;;7.50;99.90;;;;;;5109455;28;20209;-64
2024/01/05 02:19:08;;;;;;;13.00;12.50;;;7.50;99.90;;;;;;5110867;28;20577;-64
2024/01/05 02:21:40;;;;;;;12.13;11.73;;;7.60;99.90;;;;;;5107476;28;20218;-63
2024/01/05 02:24:08;;;;;;;12.43;12.03;;;7.60;99.90;;;;;;5103603;28;20704;-64
2024/01/05 02:26:35;;;;;;;12.07;11.67;;;7.60;99.90;;;;;;5108525;28;20555;-63
2024/01/05 02:29:03;;;;;;;13.17;12.67;;;7.60;99.90;;;;;;5112082;28;20233;-64
2024/01/05 02:31:30;;;;;;;12.43;12.00;;;7.60;99.90;;;;;;5121504;28;20271;-64
2024/01/05 02:33:56;;;;;;;13.40;12.90;;;7.60;99.90;;;;;;5120940;28;20205;-63
2024/01/05 02:36:23;;;;;;;13.30;12.80;;;7.60;99.90;;;;;;5120500;28;20205;-63
2024/01/05 02:38:50;;;;;;;12.20;11.80;;;7.60;99.90;;;;;;5118568;28;20214;-64
2024/01/05 02:41:18;;;;;;;12.67;12.20;;;7.70;99.90;;;;;;5112786;28;20198;-64
2024/01/05 02:43:45;;;;;;;13.23;12.73;;;7.60;99.90;;;;;;5103599;28;20531;-64
2024/01/05 02:46:11;;;;;;;13.10;12.68;;;7.70;99.90;;;;;;5116288;27;20197;-64
2024/01/05 02:48:38;;;;;;;13.50;13.00;;;7.70;99.90;;;;;;5113610;27;20551;-64
2024/01/05 02:51:05;;;;;;;13.37;12.87;;;7.60;99.90;;;;;;5117281;27;20228;-64
2024/01/05 02:53:31;;;;;;;13.20;12.70;;;7.60;99.90;;;;;;5116078;28;20670;-64
2024/01/05 02:55:58;;;;;;;12.83;12.33;;;7.60;99.90;;;;;;5116994;27;20202;-63
2024/01/05 02:58:26;;;;;;;13.57;13.07;;;7.50;99.90;;;;;;5116438;27;20221;-65
2024/01/05 03:00:53;;;;;;;13.63;13.13;;;7.50;99.90;;;;;;5115921;27;20208;-64
2024/01/05 03:03:20;;;;;;;12.90;12.40;;;7.50;99.90;;;;;;5116943;27;20221;-63
2024/01/05 03:05:47;;;;;;;13.27;12.77;;;7.50;99.90;;;;;;5116727;27;20197;-63
2024/01/05 03:08:14;;;;;;;12.90;12.50;;;7.50;99.90;;;;;;5116856;27;20193;-64
2024/01/05 03:10:40;;;;;;;13.77;13.27;;;7.50;99.90;;;;;;5113173;27;20586;-63
2024/01/05 03:13:07;;;;;;;13.63;13.10;;;7.50;99.90;;;;;;5116558;28;20233;-65
2024/01/05 03:15:35;;;;;;;12.80;12.30;;;7.50;99.90;;;;;;5116497;27;20209;-63
2024/01/05 03:18:01;;;;;;;12.57;12.10;;;7.50;99.90;;;;;;5116314;27;20221;-64
2024/01/05 03:20:29;;;;;;;13.33;12.73;;;7.50;99.90;;;;;;5113931;27;20194;-64
2024/01/05 03:22:55;;;;;;;12.93;12.43;;;7.50;99.90;;;;;;5116915;27;20230;-64
2024/01/05 03:25:22;;;;;;;13.60;13.10;;;7.50;99.90;;;;;;5114274;27;20202;-63
2024/01/05 03:27:49;;;;;;;13.17;12.67;;;7.40;99.90;;;;;;5113807;28;20210;-63
2024/01/05 03:30:17;;;;;;;13.90;13.40;;;7.40;99.90;;;;;;5116020;27;20313;-63
2024/01/05 03:32:45;;;;;;;14.20;13.70;;;7.30;99.90;;;;;;5116141;28;20225;-63
2024/01/05 03:35:12;;;;;;;13.73;13.23;;;7.30;99.90;;;;;;5109750;28;20201;-63
2024/01/05 03:37:39;;;;;;;14.53;13.93;;;7.30;99.90;;;;;;5114280;27;20220;-64
2024/01/05 03:40:07;;;;;;;13.80;13.30;;;7.20;99.90;;;;;;5113930;28;20320;-64
2024/01/05 03:42:34;;;;;;;13.70;13.20;;;7.20;99.90;;;;;;5114425;28;20233;-62
2024/01/05 03:45:01;;;;;;;14.97;14.37;;;7.20;99.90;;;;;;5111578;28;20202;-65
2024/01/05 03:47:27;;;;;;;13.97;13.47;;;7.20;99.90;;;;;;5114778;27;20213;-63
2024/01/05 03:49:55;;;;;;;13.63;13.13;;;7.20;99.90;;;;;;5117858;27;20595;-65
2024/01/05 03:52:22;;;;;;;13.40;12.90;;;7.30;99.90;;;;;;5104412;27;20233;-63
2024/01/05 03:54:49;;;;;;;13.73;13.23;;;7.30;99.90;;;;;;5110933;28;20198;-66
2024/01/05 03:57:16;;;;;;;12.67;12.27;;;7.30;99.90;;;;;;5114052;28;20574;-62
2024/01/05 03:59:43;;;;;;;12.13;11.73;;;7.30;99.90;;;;;;5120564;28;20221;-62
2024/01/05 04:02:10;;;;;;;12.18;11.77;;;7.40;99.90;;;;;;5115211;28;20218;-64
2024/01/05 04:04:36;;;;;;;13.27;12.77;;;7.40;99.90;;;;;;5115255;28;20206;-63
2024/01/05 04:07:05;;;;;;;13.03;12.53;;;7.40;99.90;;;;;;5114071;28;20212;-62
2024/01/05 04:09:32;;;;;;;12.63;12.13;;;7.40;99.90;;;;;;5119136;27;20190;-63
2024/01/05 04:11:59;;;;;;;13.03;12.53;;;7.40;99.90;;;;;;5119631;28;20233;-65
2024/01/05 04:14:26;;;;;;;13.57;13.07;;;7.40;99.90;;;;;;5111546;28;20206;-63
2024/01/05 04:16:52;;;;;;;12.97;12.53;;;7.40;99.90;;;;;;5115864;28;20217;-64
2024/01/05 04:19:19;;;;;;;12.50;12.10;;;7.40;99.90;;;;;;5120316;27;20209;-65
2024/01/05 04:21:46;;;;;;;12.70;12.20;;;7.40;99.90;;;;;;5113827;27;20225;-63
2024/01/05 04:24:14;;;;;;;12.57;12.17;;;7.40;99.90;;;;;;5121033;27;20197;-64
2024/01/05 04:26:41;;;;;;;11.93;11.53;;;7.40;99.90;;;;;;5117150;27;20284;-63
2024/01/05 04:29:08;;;;;;;12.57;12.07;;;7.40;99.90;;;;;;5114974;27;20859;-63
2024/01/05 04:31:34;;;;;;;12.50;12.10;;;7.50;99.90;;;;;;5118665;27;20228;-64
2024/01/05 04:34:03;;;;;;;12.13;11.73;;;7.50;99.90;;;;;;5120083;27;20224;-63
2024/01/05 04:36:29;;;;;;;11.60;11.20;;;7.40;99.90;;;;;;5122103;27;20205;-62
2024/01/05 04:38:56;;;;;;;11.10;10.70;;;7.50;99.90;;;;;;5122089;27;20218;-62
2024/01/05 04:41:25;;;;;;;12.23;11.77;;;7.60;99.90;;;;;;5120829;27;20225;-63
2024/01/05 04:43:52;;;;;;;12.37;11.87;;;7.70;99.90;;;;;;5118016;27;20689;-63
2024/01/05 04:46:19;;;;;;;12.43;12.03;;;7.70;99.90;;;;;;5122658;27;20223;-62
2024/01/05 04:48:46;;;;;;;12.53;12.10;;;7.70;99.90;;;;;;5120799;27;20270;-66
2024/01/05 04:51:12;;;;;;;12.70;12.20;;;7.70;99.90;;;;;;5115672;27;20202;-63
2024/01/05 04:53:39;;;;;;;11.90;11.50;;;7.70;99.90;;;;;;5123132;27;20221;-64
2024/01/05 04:56:06;;;;;;;11.87;11.47;;;7.70;99.90;;;;;;5121903;27;20198;-64
2024/01/05 04:58:34;;;;;;;11.83;11.43;;;7.70;99.90;;;;;;5118018;27;20225;-64
2024/01/05 05:01:02;;;;;;;12.00;11.60;;;7.70;99.90;;;;;;5118771;27;20205;-63
2024/01/05 05:03:30;;;;;;;11.70;11.30;;;7.80;99.90;;;;;;5124028;27;20659;-63
2024/01/05 05:05:57;;;;;;;11.57;11.17;;;7.80;99.90;;;;;;5131796;27;20198;-65
2024/01/05 05:08:23;;;;;;;12.27;11.77;;;7.80;99.90;;;;;;5131508;27;20198;-64
2024/01/05 05:10:50;;;;;;;11.60;11.20;;;7.80;99.90;;;;;;5130131;27;20680;-64
2024/01/05 05:13:17;;;;;;;11.47;11.07;;;7.70;99.90;;;;;;5125757;27;20238;-64
2024/01/05 05:15:45;;;;;;;11.85;11.45;;;7.80;99.90;;;;;;5131118;27;20545;-62
2024/01/05 05:18:12;;;;;;;11.63;11.23;;;7.80;99.90;;;;;;5124112;27;20205;-63
2024/01/05 05:20:39;;;;;;;11.53;11.13;;;7.80;99.90;;;;;;5121772;27;20229;-62
2024/01/05 05:23:05;;;;;;;10.67;10.30;;;7.80;99.90;;;;;;5121470;27;20229;-64
2024/01/05 05:25:33;;;;;;;11.27;10.87;;;7.80;99.90;;;;;;5118910;27;20202;-63
2024/01/05 05:27:59;;;;;;;11.20;10.80;;;7.80;99.90;;;;;;5121824;27;20470;-64
2024/01/05 05:30:26;;;;;;;11.43;11.03;;;7.80;99.90;;;;;;5116901;27;20200;-63
2024/01/05 05:32:54;;;;;;;11.70;11.30;;;7.80;99.90;;;;;;5131354;27;20222;-64
2024/01/05 05:35:21;;;;;;;11.23;10.83;;;7.80;99.90;;;;;;5126118;27;20205;-63
2024/01/05 05:37:47;;;;;;;11.57;11.17;;;7.80;99.90;;;;;;5118597;27;20205;-63
2024/01/05 05:40:14;;;;;;;13.17;12.57;;;7.80;99.90;;;;;;5117704;27;20213;-62
2024/01/05 05:42:41;;;;;;;11.67;11.27;;;7.80;99.90;;;;;;5111881;27;20350;-63
2024/01/05 05:45:09;;;;;;;11.80;11.40;;;7.80;99.90;;;;;;5125813;27;20562;-63
2024/01/05 05:47:35;;;;;;;11.93;11.53;;;7.90;99.90;;;;;;5121209;27;20205;-63
2024/01/05 05:50:06;;;;;;;11.97;11.57;;;7.90;99.90;;;;;;5128595;27;20208;-64
2024/01/05 05:52:34;;;;;;;11.25;10.85;;;7.90;99.90;;;;;;5122158;27;20221;-64
2024/01/05 05:55:01;;;;;;;12.32;11.82;;;7.80;99.90;;;;;;5124928;27;20258;-64
2024/01/05 05:57:28;;;;;;;11.63;11.23;;;7.80;99.90;;;;;;5117804;27;20217;-64
2024/01/05 05:59:55;;;;;;;11.67;11.27;;;7.80;99.90;;;;;;5112991;27;20688;-63
2024/01/05 06:02:21;;;;;;;11.70;11.30;;;7.80;99.90;;;;;;5116639;27;20228;-63
2024/01/05 06:04:48;;;;;;;11.57;11.17;;;7.70;99.90;;;;;;5125038;27;20202;-64
2024/01/05 06:07:16;;;;;;;12.13;11.73;;;7.70;99.90;;;;;;5133733;27;20193;-64
2024/01/05 06:09:43;;;;;;;11.80;11.40;;;7.70;99.90;;;;;;5121382;27;20562;-63
2024/01/05 06:12:10;;;;;;;12.83;12.33;;;7.70;99.90;;;;;;5118902;27;20244;-64
2024/01/05 06:14:38;;;;;;;12.23;11.83;;;7.70;99.90;;;;;;5118624;27;20362;-63
2024/01/05 06:17:04;;;;;;;12.87;12.27;;;7.60;99.90;;;;;;5115196;27;20205;-64
2024/01/05 06:19:31;;;;;;;13.37;12.87;;;7.60;99.90;;;;;;5119823;27;20209;-63
2024/01/05 06:21:59;;;;;;;12.13;11.73;;;7.60;99.90;;;;;;5121566;27;20224;-64
2024/01/05 06:24:27;;;;;;;12.17;11.77;;;7.70;99.90;;;;;;5123210;27;20201;-63
2024/01/05 06:26:54;;;;;;;12.63;12.17;;;7.70;99.90;;;;;;5113069;27;20198;-63
2024/01/05 06:29:21;;;;;;;12.55;12.15;;;7.70;99.90;;;;;;5129889;27;20216;-64
2024/01/05 06:31:48;;;;;;;12.10;11.70;;;7.80;99.90;;;;;;5129501;27;20221;-65
2024/01/05 06:34:14;;;;;;;11.90;11.50;;;7.80;99.90;;;;;;5127790;27;20574;-64
2024/01/05 06:36:41;;;;;;;12.07;11.63;;;7.90;99.90;;;;;;5121150;27;20228;-65
2024/01/05 06:39:08;;;;;;;11.97;11.57;;;7.90;99.90;;;;;;5122516;27;20228;-64
2024/01/05 06:41:36;;;;;;;12.60;12.17;;;8.00;99.90;;;;;;5121658;27;20221;-62
2024/01/05 06:44:04;;;;;;;11.57;11.17;;;8.00;99.90;;;;;;5118161;28;20874;-64
2024/01/05 06:46:31;;;;;;;12.17;11.77;;;8.00;99.90;;;;;;5118437;27;20206;-63
2024/01/05 06:48:58;;;;;;;12.23;11.83;;;8.00;99.90;;;;;;5118955;28;20202;-63
2024/01/05 06:51:29;;;;;;;12.17;11.77;;;8.10;99.90;;;;;;5116663;27;20219;-63
2024/01/05 06:53:56;;;;;;;11.93;11.43;;;8.10;99.90;;;;;;5116799;28;20210;-62
2024/01/05 06:56:23;;;;;;;12.03;11.63;;;8.10;99.90;;;;;;5112374;28;20206;-64
2024/01/05 06:58:51;;;;;;;12.10;11.70;;;8.10;99.90;;;;;;5118490;27;20214;-63
2024/01/05 07:01:18;;;;;;;11.83;11.43;;;8.20;99.90;;;;;;5121612;27;20205;-63
2024/01/05 07:03:45;;;;;;;11.50;11.10;;;8.10;99.90;;;;;;5112011;28;20228;-63
2024/01/05 07:06:12;;;;;;;11.77;11.37;;;8.20;99.90;;;;;;5118609;27;20229;-65
2024/01/05 07:08:39;;;;;;;11.93;11.53;;;8.20;99.90;;;;;;5120081;28;20274;-66
2024/01/05 07:11:06;;;;;;;11.47;11.07;;;8.20;99.90;;;;;;5145818;28;20220;-65
2024/01/05 07:13:43;;;;;;;11.00;10.60;;;8.30;99.90;;;;;;5139718;27;20213;-67
2024/01/05 07:16:17;;;;;;;10.63;10.23;;;8.30;99.90;;;;;;5133123;28;20205;-63
2024/01/05 07:18:44;;;;;;;11.17;10.77;;;8.40;99.90;;;;;;5127392;27;20224;-63
2024/01/05 07:21:11;;;;;;;10.47;10.07;;;8.30;99.90;;;;;;5117397;28;20312;-64
2024/01/05 07:23:38;;;;;;;10.63;10.23;;;8.20;99.90;;;;;;5134753;27;20202;-63
2024/01/05 07:26:04;;;;;;;10.83;10.43;;;8.20;99.90;;;;;;5121892;28;20198;-63
2024/01/05 07:28:31;;;;;;;10.93;10.53;;;8.30;99.90;;;;;;5128329;27;20201;-64
2024/01/05 07:30:58;;;;;;;11.10;10.70;;;8.30;99.90;;;;;;5120003;27;20207;-63
2024/01/05 07:33:26;;;;;;;11.10;10.70;;;8.40;99.90;;;;;;5128043;27;20217;-63
2024/01/05 07:35:53;;;;;;;11.50;11.10;;;8.50;99.90;;;;;;5124286;27;20209;-63
2024/01/05 07:38:19;;;;;;;11.03;10.63;;;8.50;99.90;;;;;;5124984;27;20200;-63
2024/01/05 07:40:46;;;;;;;11.20;10.80;;;8.50;99.90;;;;;;5125753;27;20233;-63
2024/01/05 07:43:13;;;;;;;11.33;10.93;;;8.50;99.90;;;;;;5122722;27;20225;-63
2024/01/05 07:45:40;;;;;;;11.37;10.97;;;8.60;99.90;;;;;;5125921;27;20223;-68
2024/01/05 07:48:07;;;;;;;11.13;10.73;;;8.60;99.90;;;;;;5124945;27;20598;-63
2024/01/05 07:50:35;;;;;;;11.20;10.80;;;8.70;99.90;;;;;;5128171;27;20197;-64
2024/01/05 07:53:02;;;;;;;11.40;11.00;;;8.70;99.90;;;;;;5119069;27;20263;-64
2024/01/05 07:55:29;;;;;;;11.90;11.50;;;8.80;99.90;;;;;;5128671;27;20225;-64
2024/01/05 07:57:55;;;;;;;11.02;10.63;;;8.70;99.90;;;;;;5107555;27;20217;-64
2024/01/05 08:00:23;;;;;;;11.40;11.00;;;8.80;99.90;;;;;;5107413;27;20234;-64
2024/01/05 08:02:50;;;;;;;11.47;11.07;;;8.70;99.90;;;;;;5122183;27;20225;-63
2024/01/05 08:05:17;;;;;;;11.13;10.73;;;8.70;99.90;;;;;;5131783;27;20205;-63
2024/01/05 08:07:46;;;;;;;11.50;11.10;;;8.70;99.90;;;;;;5128870;27;20693;-64
2024/01/05 08:10:12;;;;;;;11.40;11.00;;;8.70;99.90;;;;;;5130626;27;20204;-63
2024/01/05 08:12:39;;;;;;;11.60;11.20;;;8.70;99.90;;;;;;5131487;27;20240;-63
2024/01/05 08:15:07;;;;;;;12.85;12.35;;;8.70;99.90;;;;;;5126916;27;20660;-63
2024/01/05 08:17:33;;;;;;;12.40;12.00;;;8.70;99.90;;;;;;5125080;27;20668;-63
2024/01/05 08:20:01;;;;;;;12.87;12.37;;;8.70;99.90;;;;;;5128025;27;20214;-63
2024/01/05 08:22:27;;;;;;;12.70;12.20;;;8.70;99.90;;;;;;5122895;27;20225;-63
2024/01/05 08:24:56;;;;;;;12.87;12.37;;;8.70;99.90;;;;;;5107228;28;20213;-63
2024/01/05 08:27:22;;;;;;;12.97;12.47;;;8.80;99.90;;;;;;5125096;27;20201;-63
2024/01/05 08:29:49;;;;;;;12.03;11.63;;;8.70;99.90;;;;;;5127842;27;20672;-63
2024/01/05 08:32:16;;;;;;;11.53;11.13;;;8.70;99.90;;;;;;5125990;27;20228;-63
2024/01/05 08:34:42;;;;;;;12.83;12.33;;;8.70;99.90;;;;;;5128887;27;20217;-63
2024/01/05 08:37:09;;;;;;;12.90;12.40;;;8.70;99.90;;;;;;5125600;27;20569;-64
2024/01/05 08:39:39;;;;;;;12.30;11.83;;;8.70;99.90;;;;;;5129409;27;20198;-63
2024/01/05 08:42:07;;;;;;;12.93;12.43;;;8.70;99.90;;;;;;5124443;27;20233;-64
2024/01/05 08:44:35;;;;;;;14.03;13.53;;;8.70;99.90;;;;;;5128231;27;20223;-63
2024/01/05 08:47:02;;;;;;;13.37;12.87;;;8.70;99.90;;;;;;5127223;27;20205;-64
2024/01/05 08:49:28;;;;;;;13.70;13.20;;;8.70;99.90;;;;;;5127053;27;20601;-62
2024/01/05 08:51:55;;;;;;;14.00;13.50;;;8.70;99.90;;;;;;5117515;27;20225;-64
2024/01/05 08:54:22;;;;;;;13.93;13.43;;;8.70;99.90;;;;;;5130932;27;20198;-64
2024/01/05 08:56:49;;;;;;;15.90;15.30;;;8.70;99.90;;;;;;5122873;27;20216;-62
2024/01/05 08:59:17;;;;;;;14.13;13.63;;;8.70;99.90;;;;;;5131798;27;20197;-65
2024/01/05 09:01:43;;;;;;;14.13;13.63;;;8.60;99.90;;;;;;5124447;27;20237;-63
2024/01/05 09:04:10;;;;;;;14.10;13.60;;;8.70;99.90;;;;;;5132662;27;20194;-64
2024/01/05 09:06:38;;;;;;;13.27;12.77;;;8.70;99.90;;;;;;5127708;27;20213;-63
2024/01/05 09:09:05;;;;;;;14.07;13.57;;;8.70;99.90;;;;;;5124553;27;20201;-63
2024/01/05 09:11:32;;;;;;;13.80;13.30;;;8.80;99.90;;;;;;5129603;27;20224;-63
2024/01/05 09:13:58;;;;;;;13.93;13.43;;;8.80;99.90;;;;;;5106707;27;20567;-63
2024/01/05 09:16:26;;;;;;;14.47;13.97;;;8.80;99.90;;;;;;5126227;27;20205;-64
2024/01/05 09:18:53;;;;;;;14.32;13.82;;;8.80;99.90;;;;;;5124847;27;20213;-64
2024/01/05 09:21:20;;;;;;;14.90;14.30;;;8.90;99.90;;;;;;5107304;27;20222;-63
2024/01/05 09:23:47;;;;;;;13.93;13.43;;;8.90;99.90;;;;;;5109255;27;20206;-63
2024/01/05 09:26:14;;;;;;;13.37;12.87;;;9.00;99.90;;;;;;5126317;27;20652;-63
2024/01/05 09:28:42;;;;;;;14.87;14.27;;;9.00;99.90;;;;;;5116736;27;20205;-62
2024/01/05 09:31:09;;;;;;;13.70;13.20;;;9.00;99.90;;;;;;5129734;27;20201;-62
2024/01/05 09:33:37;;;;;;;13.80;13.30;;;9.10;99.90;;;;;;5126763;27;20728;-63
2024/01/05 09:36:05;;;;;;;14.73;14.13;;;9.10;99.90;;;;;;5108791;27;20229;-62
2024/01/05 09:38:31;;;;;;;13.13;12.63;;;9.20;99.90;;;;;;5118435;27;20202;-62
2024/01/05 09:40:59;;;;;;;14.50;13.90;;;9.20;99.90;;;;;;5123574;27;20225;-64
2024/01/05 09:43:26;;;;;;;14.10;13.60;;;9.20;99.90;;;;;;5125700;27;20245;-63
2024/01/05 09:45:53;;;;;;;15.13;14.53;;;9.20;99.90;;;;;;5121774;27;20212;-63
2024/01/05 09:48:21;;;;;;;13.60;13.10;;;9.30;99.90;;;;;;5108683;27;20198;-63
2024/01/05 09:50:52;;;;;;;15.97;15.37;;;9.30;99.90;;;;;;5103186;27;20198;-65
2024/01/05 09:53:19;;;;;;;14.23;13.73;;;9.40;99.90;;;;;;5103840;27;20856;-61
2024/01/05 09:55:48;;;;;;;14.60;14.00;;;9.40;99.90;;;;;;5117489;27;20206;-65
2024/01/05 09:58:15;;;;;;;13.63;13.13;;;9.40;99.90;;;;;;5118893;27;20201;-64
2024/01/05 10:00:45;;;;;;;14.10;13.60;;;9.40;99.90;;;;;;5123068;27;20700;-64
2024/01/05 10:03:15;;;;;;;13.93;13.43;;;9.50;99.90;;;;;;5126697;27;20221;-63
2024/01/05 10:05:42;;;;;;;14.03;13.53;;;9.50;99.90;;;;;;5121443;27;20212;-63
2024/01/05 10:08:11;;;;;;;14.10;13.60;;;9.50;99.90;;;;;;5127873;27;20201;-65
2024/01/05 10:10:48;;;;;;;14.83;14.27;;;9.60;99.90;;;;;;5118742;27;20651;-66
2024/01/05 10:13:15;;;;;;;14.60;14.00;;;9.50;99.90;;;;;;5111426;27;20226;-64
2024/01/05 10:15:53;;;;;;;13.50;13.00;;;9.50;99.90;;;;;;5114946;27;20684;-65
2024/01/05 10:18:20;;;;;;;13.93;13.43;;;9.60;99.90;;;;;;5110469;27;20249;-63
2024/01/05 10:20:47;;;;;;;12.80;12.30;;;9.70;99.90;;;;;;5126426;27;20227;-65
2024/01/05 10:23:16;;;;;;;13.20;12.70;;;9.90;99.90;;;;;;5123541;27;20217;-64
2024/01/05 10:25:44;;;;;;;12.40;11.90;;;10.00;99.90;;;;;;5119745;27;20212;-63
2024/01/05 10:28:23;;;;;;;11.13;10.73;;;10.10;99.90;;;;;;5120374;27;20229;-64
2024/01/05 10:30:52;;;;;;;11.97;11.57;;;10.20;99.90;;;;;;5120062;27;20202;-65
2024/01/05 10:33:19;;;;;;;11.50;11.10;;;10.30;99.90;;;;;;5126582;27;20262;-62
2024/01/05 10:35:46;;;;;;;11.50;11.10;;;10.30;99.90;;;;;;5129248;27;20198;-66
2024/01/05 10:38:15;;;;;;;11.53;11.13;;;10.40;99.90;;;;;;5136471;27;20211;-65
2024/01/05 10:40:42;;;;;;;11.70;11.30;;;10.50;99.90;;;;;;5124774;27;20251;-64
2024/01/05 10:43:10;;;;;;;11.70;11.30;;;10.50;99.90;;;;;;5123085;27;20593;-62
2024/01/05 10:45:38;;;;;;;11.40;11.00;;;10.60;99.90;;;;;;5122819;27;20206;-64
2024/01/05 10:48:07;;;;;;;11.40;11.00;;;10.60;99.90;;;;;;5121966;28;20205;-64
2024/01/05 10:50:36;;;;;;;11.37;10.97;;;10.70;99.90;;;;;;5127746;27;20664;-65
2024/01/05 10:53:04;;;;;;;11.50;11.10;;;10.70;99.90;;;;;;5120684;27;20221;-64
2024/01/05 10:55:33;;;;;;;11.43;11.03;;;10.80;99.90;;;;;;5121716;28;20201;-63
2024/01/05 10:58:00;;;;;;;11.13;10.73;;;10.80;99.90;;;;;;5111788;27;20570;-63
2024/01/05 11:00:27;;;;;;;11.70;11.30;;;10.80;99.90;;;;;;5112398;28;20224;-63
2024/01/05 11:03:06;;;;;;;12.13;11.63;;;10.90;99.90;;;;;;5128048;27;20592;-63
2024/01/05 11:05:33;;;;;;;12.03;11.63;;;10.90;99.90;;;;;;5121818;27;20563;-65
2024/01/05 11:08:02;;;;;;;11.87;11.47;;;11.00;99.90;;;;;;5126532;27;20209;-64
2024/01/05 11:10:44;;;;;;;11.73;11.33;;;11.10;99.90;;;;;;5121662;27;20246;-65
2024/01/05 11:13:37;;;;;;;12.60;12.17;;;11.10;99.90;;;;;;5128910;27;20256;-63
2024/01/05 11:16:33;;;;;;;12.20;11.80;;;11.10;99.90;;;;;;5118483;27;20194;-65
2024/01/05 11:19:23;;;;;;;12.33;11.83;;;11.10;99.90;;;;;;5118050;27;20225;-63
2024/01/05 11:21:55;;;;;;;12.03;11.63;;;11.10;99.90;;;;;;5107776;27;20260;-65
2024/01/05 11:24:23;;;;;;;14.07;13.57;;;11.10;99.90;;;;;;5117620;27;20194;-63
2024/01/05 11:26:51;;;;;;;14.23;13.73;;;11.20;99.90;;;;;;5115453;27;20243;-65
2024/01/05 11:29:48;;;;;;;16.03;15.43;;;11.20;99.90;;;;;;5120804;27;20551;-63
2024/01/05 11:32:37;;;;;;;15.33;14.77;;;11.30;99.90;;;;;;5102389;27;20222;-63
2024/01/05 11:35:41;;;;;;;14.93;14.43;;;11.30;99.90;;;;;;5110611;27;20201;-63
2024/01/05 11:38:25;;;;;;;15.10;14.60;;;11.40;99.90;;;;;;5124837;27;20204;-64
2024/01/05 11:40:51;;;;;;;14.20;13.70;;;11.40;99.90;;;;;;5123877;27;20205;-64
2024/01/05 11:43:38;;;;;;;13.80;13.30;;;11.40;99.90;;;;;;5129974;27;20221;-64
2024/01/05 11:46:06;;;;;;;15.40;14.87;;;11.30;99.90;;;;;;5122135;27;20202;-65
2024/01/05 11:48:47;;;;;;;15.00;14.50;;;11.30;99.90;;;;;;5120229;27;20604;-63
2024/01/05 11:51:13;;;;;;;14.90;14.40;;;11.30;99.90;;;;;;5121054;27;20258;-66
2024/01/05 11:53:40;;;;;;;14.30;13.80;;;11.30;99.90;;;;;;5130177;27;20591;-66
2024/01/05 11:56:10;;;;;;;16.57;15.97;;;11.30;99.90;;;;;;5126691;27;20197;-65
2024/01/05 11:58:41;;;;;;;15.47;14.97;;;11.30;99.90;;;;;;5115306;27;20247;-62
2024/01/05 12:01:10;;;;;;;15.00;14.47;;;11.30;99.90;;;;;;5119126;27;20205;-64
2024/01/05 12:03:38;;;;;;;14.77;14.27;;;11.30;99.90;;;;;;5122473;27;20308;-63
2024/01/05 12:06:06;;;;;;;14.63;14.13;;;11.30;99.90;;;;;;5131387;27;20201;-64
2024/01/05 12:08:33;;;;;;;15.70;15.20;;;11.30;99.90;;;;;;5133562;27;20549;-63
2024/01/05 12:11:02;;;;;;;15.63;15.03;;;11.40;99.90;;;;;;5133592;27;20209;-66
2024/01/05 12:13:32;;;;;;;14.30;13.80;;;11.40;99.90;;;;;;5131872;27;20241;-65
2024/01/05 12:16:02;;;;;;;14.67;14.17;;;11.40;99.90;;;;;;5130349;27;20220;-64
2024/01/05 12:18:30;;;;;;;13.27;12.77;;;11.50;99.90;;;;;;5119366;27;20202;-64
2024/01/05 12:20:58;;;;;;;14.60;14.10;;;11.50;99.90;;;;;;5111974;27;20218;-65
2024/01/05 12:23:25;;;;;;;13.70;13.20;;;11.50;99.90;;;;;;5123082;27;20226;-65
2024/01/05 12:26:00;;;;;;;14.20;13.70;;;11.50;99.90;;;;;;5130324;27;20198;-66
2024/01/05 12:28:29;;;;;;;14.73;14.23;;;11.50;99.90;;;;;;5121729;27;20201;-64
2024/01/05 12:30:57;;;;;;;13.90;13.40;;;11.60;99.90;;;;;;5124183;27;20191;-64
2024/01/05 12:33:25;;;;;;;13.03;12.53;;;11.50;99.90;;;;;;5117147;27;20221;-64
2024/01/05 12:35:53;;;;;;;14.33;13.83;;;11.50;99.90;;;;;;5130418;27;20221;-64
2024/01/05 12:38:24;;;;;;;14.20;13.70;;;11.60;99.90;;;;;;5122094;27;20206;-64
2024/01/05 12:40:51;;;;;;;13.63;13.13;;;11.60;99.90;;;;;;5129950;27;20285;-64